createdAt,value
2019-05-07T00:01:18.398Z,100388.36
2019-05-07T00:03:47.599Z,100385.14
2019-05-07T00:06:16.905Z,100380.16
2019-05-07T00:08:46.389Z,100384.33
2019-05-07T00:11:15.604Z,100385.09
2019-05-07T00:13:45.040Z,100385.36
2019-05-07T00:16:14.513Z,100384.34
2019-05-07T00:18:43.719Z,100384.27
2019-05-07T00:21:12.941Z,100383.31
2019-05-07T00:23:43.232Z,100379.69
2019-05-07T00:26:13.331Z,100380.03
2019-05-07T00:28:43.399Z,100374.22
2019-05-07T00:31:13.255Z,100379.83
2019-05-07T00:33:43.223Z,100367.66
2019-05-07T00:36:23.136Z,100374.22
2019-05-07T00:38:57.668Z,100373.27
2019-05-07T00:41:36.777Z,100373.20
2019-05-07T00:44:07.081Z,100374.91
2019-05-07T00:46:36.655Z,100375.18
2019-05-07T00:49:06.022Z,100371.22
2019-05-07T00:51:36.045Z,100372.78
2019-05-07T00:54:06.163Z,100371.69
2019-05-07T00:56:35.640Z,100368.48
2019-05-07T00:59:04.856Z,100367.52
2019-05-07T01:01:34.944Z,100368.27
2019-05-07T01:04:04.676Z,100366.08
2019-05-07T01:06:33.976Z,100367.78
2019-05-07T01:09:05.192Z,100366.83
2019-05-07T01:11:34.820Z,100369.83
2019-05-07T01:14:04.247Z,100366.55
2019-05-07T01:16:33.554Z,100362.59
2019-05-07T01:19:02.899Z,100366.41
2019-05-07T01:21:32.650Z,100364.62
2019-05-07T01:24:03.227Z,100365.78
2019-05-07T01:26:33.291Z,100362.57
2019-05-07T01:29:03.323Z,100372.39
2019-05-07T01:31:37.807Z,100370.14
2019-05-07T01:34:19.033Z,100362.28
2019-05-07T01:36:48.395Z,100363.44
2019-05-07T01:39:17.608Z,100368.89
2019-05-07T01:41:46.908Z,100364.85
2019-05-07T01:44:16.411Z,100369.63
2019-05-07T01:46:45.621Z,100370.59
2019-05-07T01:49:14.952Z,100372.03
2019-05-07T01:51:44.413Z,100368.36
2019-05-07T01:54:13.626Z,100365.50
2019-05-07T01:56:42.914Z,100366.39
2019-05-07T01:59:12.520Z,100362.50
2019-05-07T02:01:42.953Z,100363.05
2019-05-07T02:04:19.823Z,100365.16
2019-05-07T02:07:06.994Z,100358.94
2019-05-07T02:09:53.777Z,100360.23
2019-05-07T02:12:26.345Z,100351.98
2019-05-07T02:14:55.833Z,100358.46
2019-05-07T02:17:25.198Z,100360.98
2019-05-07T02:19:54.409Z,100369.03
2019-05-07T02:22:23.707Z,100362.33
2019-05-07T02:24:52.958Z,100360.00
2019-05-07T02:27:22.271Z,100358.23
2019-05-07T02:29:52.873Z,100363.82
2019-05-07T02:32:24.055Z,100359.86
2019-05-07T02:34:54.528Z,100365.78
2019-05-07T02:37:37.629Z,100361.97
2019-05-07T02:40:29.019Z,100367.30
2019-05-07T02:42:58.257Z,100363.48
2019-05-07T02:45:37.913Z,100366.00
2019-05-07T02:48:07.198Z,100366.89
2019-05-07T02:50:49.386Z,100362.73
2019-05-07T02:53:27.910Z,100363.91
2019-05-07T02:55:57.740Z,100364.39
2019-05-07T02:58:26.965Z,100361.88
2019-05-07T03:00:56.435Z,100360.80
2019-05-07T03:03:25.955Z,100365.16
2019-05-07T03:05:55.277Z,100365.64
2019-05-07T03:08:27.566Z,100368.57
2019-05-07T03:10:55.828Z,100360.94
2019-05-07T03:13:25.165Z,100367.70
2019-05-07T03:15:54.515Z,100365.18
2019-05-07T03:18:24.155Z,100358.69
2019-05-07T03:20:57.937Z,100363.26
2019-05-07T03:23:34.200Z,100363.33
2019-05-07T03:26:13.804Z,100360.67
2019-05-07T03:28:53.560Z,100367.56
2019-05-07T03:31:46.033Z,100361.82
2019-05-07T03:34:36.776Z,100358.34
2019-05-07T03:39:50.466Z,100355.41
2019-05-07T03:42:19.724Z,100370.16
2019-05-07T03:45:04.595Z,100360.40
2019-05-07T03:47:39.180Z,100369.96
2019-05-07T03:50:14.663Z,100365.64
2019-05-07T03:52:43.187Z,100367.40
2019-05-07T03:55:14.550Z,100371.14
2019-05-07T03:57:44.345Z,100368.81
2019-05-07T04:00:14.158Z,100368.81
2019-05-07T04:02:44.008Z,100363.00
2019-05-07T04:05:14.549Z,100370.23
2019-05-07T04:07:44.012Z,100373.42
2019-05-07T04:10:15.043Z,100377.98
2019-05-07T04:12:44.715Z,100383.83
2019-05-07T04:15:18.802Z,100377.54
2019-05-07T04:17:45.491Z,100375.50
2019-05-07T04:20:15.304Z,100381.91
2019-05-07T04:22:44.526Z,100380.76
2019-05-07T04:25:34.639Z,100383.16
2019-05-07T04:28:33.376Z,100378.12
2019-05-07T04:31:03.357Z,100375.94
2019-05-07T04:33:37.013Z,100375.87
2019-05-07T04:36:14.594Z,100376.76
2019-05-07T04:38:44.312Z,100377.31
2019-05-07T04:41:14.015Z,100374.31
2019-05-07T04:43:43.916Z,100381.27
2019-05-07T04:46:14.483Z,100373.71
2019-05-07T04:48:44.385Z,100367.78
2019-05-07T04:51:16.157Z,100373.66
2019-05-07T04:53:45.539Z,100362.14
2019-05-07T04:56:14.888Z,100366.98
2019-05-07T04:58:44.147Z,100366.73
2019-05-07T05:01:15.124Z,100364.75
2019-05-07T05:03:44.355Z,100365.72
2019-05-07T05:06:13.909Z,100368.18
2019-05-07T05:08:43.848Z,100370.93
2019-05-07T05:11:13.209Z,100357.96
2019-05-07T05:13:44.479Z,100368.14
2019-05-07T05:16:28.891Z,100369.51
2019-05-07T05:18:59.028Z,100362.41
2019-05-07T05:21:42.011Z,100362.27
2019-05-07T05:24:15.022Z,100360.36
2019-05-07T05:26:44.389Z,100360.97
2019-05-07T05:29:13.600Z,100362.00
2019-05-07T05:31:43.185Z,100363.63
2019-05-07T05:34:13.204Z,100355.58
2019-05-07T05:36:42.817Z,100351.75
2019-05-07T05:39:13.158Z,100352.42
2019-05-07T05:41:44.998Z,100345.31
2019-05-07T05:44:28.458Z,100345.79
2019-05-07T05:46:59.195Z,100343.27
2019-05-07T05:49:28.412Z,100337.52
2019-05-07T05:52:25.742Z,100337.02
2019-05-07T05:54:59.225Z,100334.18
2019-05-07T05:57:42.779Z,100333.55
2019-05-07T06:00:32.842Z,100334.05
2019-05-07T06:03:22.588Z,100331.80
2019-05-07T06:06:01.928Z,100331.87
2019-05-07T06:08:59.005Z,100333.04
2019-05-07T06:11:35.376Z,100326.61
2019-05-07T06:14:22.717Z,100323.37
2019-05-07T06:17:13.936Z,100317.94
2019-05-07T06:19:49.250Z,100328.11
2019-05-07T06:22:35.085Z,100313.41
2019-05-07T06:25:15.443Z,100319.81
2019-05-07T06:27:44.968Z,100312.75
2019-05-07T06:30:17.302Z,100317.70
2019-05-07T06:32:46.790Z,100320.81
2019-05-07T06:35:19.087Z,100314.70
2019-05-07T06:37:48.868Z,100312.38
2019-05-07T06:40:32.056Z,100313.86
2019-05-07T06:43:07.812Z,100313.09
2019-05-07T06:45:42.228Z,100326.96
2019-05-07T06:48:12.768Z,100327.96
2019-05-07T06:50:56.723Z,100324.58
2019-05-07T06:53:32.998Z,100323.45
2019-05-07T06:56:03.130Z,100321.77
2019-05-07T06:58:38.242Z,100319.52
2019-05-07T07:01:23.791Z,100334.34
2019-05-07T07:04:07.796Z,100328.98
2019-05-07T07:06:57.489Z,100319.52
2019-05-07T07:09:44.672Z,100332.64
2019-05-07T07:12:17.884Z,100316.91
2019-05-07T07:14:47.420Z,100314.34
2019-05-07T07:17:16.730Z,100331.45
2019-05-07T07:19:46.053Z,100318.87
2019-05-07T07:22:15.672Z,100327.52
2019-05-07T07:24:44.896Z,100325.75
2019-05-07T07:27:14.158Z,100320.05
2019-05-07T07:29:52.801Z,100326.97
2019-05-07T07:32:26.321Z,100326.91
2019-05-07T07:34:55.727Z,100331.17
2019-05-07T07:37:32.029Z,100337.61
2019-05-07T07:40:22.474Z,100329.11
2019-05-07T07:42:52.130Z,100332.77
2019-05-07T07:45:23.020Z,100334.12
2019-05-07T07:47:53.136Z,100337.67
2019-05-07T07:50:22.603Z,100339.49
2019-05-07T07:52:52.943Z,100330.61
2019-05-07T07:55:29.060Z,100330.05
2019-05-07T07:58:12.042Z,100321.93
2019-05-07T08:00:59.065Z,100326.67
2019-05-07T08:03:28.744Z,100310.88
2019-05-07T08:05:58.502Z,100315.59
2019-05-07T08:08:32.186Z,100315.40
2019-05-07T08:11:02.383Z,100324.59
2019-05-07T08:13:32.521Z,100320.74
2019-05-07T08:16:02.552Z,100323.37
2019-05-07T08:18:32.826Z,100324.47
2019-05-07T08:21:02.613Z,100327.34
2019-05-07T08:23:32.082Z,100329.15
2019-05-07T08:26:02.557Z,100332.37
2019-05-07T08:28:32.114Z,100329.36
2019-05-07T08:31:17.505Z,100330.77
2019-05-07T08:33:54.021Z,100324.89
2019-05-07T08:36:23.476Z,100329.78
2019-05-07T08:38:53.814Z,100333.67
2019-05-07T08:41:24.758Z,100330.27
2019-05-07T08:44:10.734Z,100325.30
2019-05-07T08:46:53.406Z,100334.35
2019-05-07T08:49:35.808Z,100330.98
2019-05-07T08:52:03.327Z,100341.50
2019-05-07T08:54:32.705Z,100335.94
2019-05-07T08:57:02.675Z,100337.80
2019-05-07T08:59:33.424Z,100334.80
2019-05-07T09:02:03.234Z,100324.66
2019-05-07T09:04:32.961Z,100330.12
2019-05-07T09:07:03.012Z,100338.17
2019-05-07T09:09:32.786Z,100334.82
2019-05-07T09:12:03.047Z,100336.69
2019-05-07T09:14:32.647Z,100219.70
2019-05-07T09:17:02.791Z,100337.27
2019-05-07T09:19:46.931Z,100319.15
2019-05-07T09:22:04.441Z,100324.16
2019-05-07T09:24:33.656Z,100340.60
2019-05-07T09:27:28.222Z,100331.18
2019-05-07T09:30:16.418Z,100341.36
2019-05-07T09:32:59.063Z,100331.35
2019-05-07T09:35:33.717Z,100350.65
2019-05-07T09:38:05.448Z,100344.44
2019-05-07T09:40:34.665Z,100335.54
2019-05-07T09:43:04.005Z,100341.59
2019-05-07T09:45:34.587Z,100344.47
2019-05-07T09:48:05.340Z,100338.95
2019-05-07T09:50:34.717Z,100344.02
2019-05-07T09:53:04.318Z,100338.83
2019-05-07T09:55:33.521Z,100327.95
2019-05-07T09:58:02.779Z,100324.89
2019-05-07T10:00:32.424Z,100313.50
2019-05-07T10:03:01.761Z,100320.94
2019-05-07T10:05:32.185Z,100326.84
2019-05-07T10:08:02.178Z,100317.07
2019-05-07T10:10:32.920Z,100315.20
2019-05-07T10:13:08.031Z,100321.42
2019-05-07T10:15:37.664Z,100313.14
2019-05-07T10:18:13.422Z,100321.93
2019-05-07T10:20:43.381Z,100312.84
2019-05-07T10:23:22.954Z,100322.45
2019-05-07T10:25:56.754Z,100331.67
2019-05-07T10:28:26.113Z,100332.19
2019-05-07T10:30:55.691Z,100324.20
2019-05-07T10:33:24.928Z,100319.17
2019-05-07T10:35:54.466Z,100314.13
2019-05-07T10:38:23.908Z,100309.34
2019-05-07T10:40:53.488Z,100300.23
2019-05-07T10:43:23.080Z,100307.61
2019-05-07T10:46:12.774Z,100322.30
2019-05-07T10:48:49.562Z,100320.74
2019-05-07T10:51:18.875Z,100304.89
2019-05-07T10:53:48.685Z,100309.73
2019-05-07T10:56:18.150Z,100306.86
2019-05-07T10:58:47.434Z,100309.06
2019-05-07T11:01:22.442Z,100307.93
2019-05-07T11:03:51.843Z,100309.82
2019-05-07T11:06:22.097Z,100311.64
2019-05-07T11:08:53.252Z,100320.87
2019-05-07T11:11:22.522Z,100319.64
2019-05-07T11:13:56.133Z,100310.24
2019-05-07T11:16:27.614Z,100307.92
2019-05-07T11:18:56.827Z,100308.85
2019-05-07T11:21:33.600Z,100310.28
2019-05-07T11:24:05.396Z,100314.28
2019-05-07T11:26:34.839Z,100317.81
2019-05-07T11:29:05.549Z,100313.43
2019-05-07T11:31:34.772Z,100305.73
2019-05-07T11:34:04.997Z,100308.59
2019-05-07T11:36:34.390Z,100303.53
2019-05-07T11:39:05.956Z,100303.73
2019-05-07T11:41:45.742Z,100308.20
2019-05-07T11:44:19.566Z,100311.11
2019-05-07T11:47:06.378Z,100309.95
2019-05-07T11:49:53.531Z,100315.44
2019-05-07T11:52:35.796Z,100329.38
2019-05-07T11:55:04.647Z,100345.05
2019-05-07T11:57:33.868Z,100344.61
2019-05-07T12:00:03.388Z,100360.86
2019-05-07T12:02:32.824Z,100353.53
2019-05-07T12:05:02.305Z,100360.86
2019-05-07T12:07:32.761Z,100363.63
2019-05-07T12:10:04.899Z,100352.98
2019-05-07T12:12:33.207Z,100344.20
2019-05-07T12:15:02.592Z,100348.20
2019-05-07T12:17:32.205Z,100345.60
2019-05-07T12:20:02.347Z,100349.48
2019-05-07T12:22:47.706Z,100346.23
2019-05-07T12:25:19.572Z,100327.66
2019-05-07T12:27:50.428Z,100332.09
2019-05-07T12:30:51.826Z,100320.61
2019-05-07T12:33:42.808Z,100319.31
2019-05-07T12:36:15.487Z,100318.45
2019-05-07T12:38:45.250Z,100329.13
2019-05-07T12:41:29.858Z,100321.08
2019-05-07T12:44:02.535Z,100327.53
2019-05-07T12:46:33.345Z,100335.95
2019-05-07T12:49:03.424Z,100331.61
2019-05-07T12:51:38.093Z,100327.85
2019-05-07T12:54:22.690Z,100325.88
2019-05-07T12:56:52.236Z,100328.65
2019-05-07T12:59:21.900Z,100334.05
2019-05-07T13:02:18.325Z,100335.85
2019-05-07T13:04:38.469Z,100340.77
2019-05-07T13:07:26.841Z,100334.23
2019-05-07T13:09:56.052Z,100335.08
2019-05-07T13:12:25.331Z,100345.90
2019-05-07T13:14:54.808Z,100345.25
2019-05-07T13:17:24.050Z,100352.28
2019-05-07T13:19:53.262Z,100352.86
2019-05-07T13:22:22.608Z,100358.27
2019-05-07T13:24:52.970Z,100362.61
2019-05-07T13:27:22.260Z,100358.71
2019-05-07T13:29:53.112Z,100358.43
2019-05-07T13:32:23.236Z,100360.17
2019-05-07T13:34:55.255Z,100356.86
2019-05-07T13:37:27.547Z,100354.28
2019-05-07T13:40:04.757Z,100352.98
2019-05-07T13:42:45.630Z,100369.30
2019-05-07T13:45:32.525Z,100364.92
2019-05-07T13:48:12.125Z,100362.98
2019-05-07T13:50:42.013Z,100371.48
2019-05-07T13:53:12.362Z,100352.72
2019-05-07T13:55:42.315Z,100351.16
2019-05-07T13:58:14.249Z,100380.86
2019-05-07T14:00:55.239Z,100361.06
2019-05-07T14:03:24.643Z,100365.25
2019-05-07T14:05:53.990Z,100367.75
2019-05-07T14:08:24.679Z,100377.39
2019-05-07T14:10:54.111Z,100356.02
2019-05-07T14:13:23.339Z,100354.36
2019-05-07T14:16:12.118Z,100360.95
2019-05-07T14:18:41.690Z,100358.91
2019-05-07T14:21:12.949Z,100374.87
2019-05-07T14:23:42.767Z,100382.59
2019-05-07T14:26:12.176Z,100381.45
2019-05-07T14:28:42.286Z,100384.19
2019-05-07T14:31:12.398Z,100388.15
2019-05-07T14:33:53.970Z,100406.27
2019-05-07T14:36:27.407Z,100421.58
2019-05-07T14:38:58.016Z,100418.23
2019-05-07T14:41:27.190Z,100424.52
2019-05-07T14:44:02.610Z,100424.84
2019-05-07T14:46:43.916Z,100437.67
2019-05-07T14:49:02.884Z,100438.91
2019-05-07T14:51:32.731Z,100437.75
2019-05-07T14:54:02.136Z,100441.45
2019-05-07T14:56:32.253Z,100432.20
2019-05-07T14:59:02.411Z,100428.64
2019-05-07T15:01:33.797Z,100414.64
2019-05-07T15:04:03.006Z,100409.95
2019-05-07T15:06:32.585Z,100412.30
2019-05-07T15:09:01.893Z,100405.94
2019-05-07T15:11:31.862Z,100403.63
2019-05-07T15:14:02.644Z,100406.66
2019-05-07T15:16:32.194Z,100402.95
2019-05-07T15:19:01.901Z,100407.55
2019-05-07T15:21:32.339Z,100405.84
2019-05-07T15:24:02.436Z,100401.75
2019-05-07T15:26:32.631Z,100399.73
2019-05-07T15:29:12.093Z,100395.83
2019-05-07T15:32:15.331Z,100388.11
2019-05-07T15:34:44.805Z,100385.41
2019-05-07T15:37:16.419Z,100388.56
2019-05-07T15:39:45.783Z,100397.39
2019-05-07T15:42:15.045Z,100388.14
2019-05-07T15:44:44.281Z,100380.10
2019-05-07T15:47:22.623Z,100375.92
2019-05-07T15:49:51.857Z,100375.92
2019-05-07T15:52:42.563Z,100369.28
2019-05-07T15:55:12.025Z,100369.28
2019-05-07T15:57:42.810Z,100390.44
2019-05-07T16:00:14.956Z,100401.72
2019-05-07T16:02:47.282Z,100399.92
2019-05-07T16:05:18.286Z,100391.11
2019-05-07T16:07:48.951Z,100389.25
2019-05-07T16:10:18.387Z,100391.61
2019-05-07T16:12:48.296Z,100379.59
2019-05-07T16:15:17.906Z,100377.93
2019-05-07T16:17:53.283Z,100382.11
2019-05-07T16:20:22.876Z,100382.34
2019-05-07T16:22:55.079Z,100380.34
2019-05-07T16:25:24.417Z,100372.48
2019-05-07T16:27:53.692Z,100384.23
2019-05-07T16:30:23.211Z,100376.34
2019-05-07T16:32:55.196Z,100375.63
2019-05-07T16:35:23.438Z,100384.70
2019-05-07T16:37:52.887Z,100390.77
2019-05-07T16:40:23.067Z,100388.11
2019-05-07T16:42:52.579Z,100390.16
2019-05-07T16:45:22.166Z,100400.54
2019-05-07T16:47:52.140Z,100383.02
2019-05-07T16:50:22.559Z,100378.27
2019-05-07T16:52:52.387Z,100392.33
2019-05-07T16:55:23.734Z,100389.28
2019-05-07T16:58:04.902Z,100406.92
2019-05-07T17:00:45.998Z,100407.43
2019-05-07T17:03:20.062Z,100402.47
2019-05-07T17:05:49.270Z,100407.19
2019-05-07T17:08:42.327Z,100413.92
2019-05-07T17:11:12.126Z,100419.34
2019-05-07T17:13:42.411Z,100418.01
2019-05-07T17:16:12.477Z,100425.71
2019-05-07T17:18:42.128Z,100423.80
2019-05-07T17:21:12.338Z,100421.94
2019-05-07T17:23:44.603Z,100432.90
2019-05-07T17:26:12.870Z,100429.30
2019-05-07T17:28:42.685Z,100442.56
2019-05-07T17:31:12.729Z,100434.88
2019-05-07T17:33:42.593Z,100434.67
2019-05-07T17:36:12.189Z,100441.02
2019-05-07T17:38:42.919Z,100445.20
2019-05-07T17:41:19.621Z,100443.33
2019-05-07T17:43:43.232Z,100443.66
2019-05-07T17:46:12.519Z,100457.39
2019-05-07T17:48:42.862Z,100445.55
2019-05-07T17:51:34.240Z,100451.14
2019-05-07T17:54:03.645Z,100454.52
2019-05-07T17:56:32.867Z,100449.62
2019-05-07T17:59:02.956Z,100443.45
2019-05-07T18:01:57.194Z,100449.47
2019-05-07T18:04:26.720Z,100449.41
2019-05-07T18:06:55.941Z,100453.64
2019-05-07T18:09:25.593Z,100449.21
2019-05-07T18:11:54.940Z,100457.35
2019-05-07T18:14:24.168Z,100452.39
2019-05-07T18:17:15.587Z,100461.42
2019-05-07T18:19:47.429Z,100459.08
2019-05-07T18:22:17.136Z,100457.61
2019-05-07T18:24:46.657Z,100461.37
2019-05-07T18:27:22.382Z,100459.48
2019-05-07T18:29:52.198Z,100474.09
2019-05-07T18:32:22.058Z,100468.29
2019-05-07T18:34:51.929Z,100473.40
2019-05-07T18:37:22.881Z,100476.31
2019-05-07T18:39:52.474Z,100469.69
2019-05-07T18:42:22.292Z,100479.12
2019-05-07T18:44:52.443Z,100477.29
2019-05-07T18:47:22.452Z,100480.20
2019-05-07T18:49:52.028Z,100485.30
2019-05-07T18:52:22.976Z,100483.11
2019-05-07T18:54:53.801Z,100483.36
2019-05-07T18:57:23.092Z,100485.49
2019-05-07T18:59:53.161Z,100481.06
2019-05-07T19:02:22.954Z,100481.83
2019-05-07T19:04:52.164Z,100486.88
2019-05-07T19:07:23.000Z,100485.52
2019-05-07T19:09:52.575Z,100488.78
2019-05-07T19:12:24.910Z,100491.33
2019-05-07T19:14:54.457Z,100486.89
2019-05-07T19:17:25.618Z,100493.28
2019-05-07T19:19:54.705Z,100496.25
2019-05-07T19:22:24.071Z,100492.70
2019-05-07T19:24:53.329Z,100496.43
2019-05-07T19:27:22.560Z,100494.89
2019-05-07T19:29:51.898Z,100498.16
2019-05-07T19:32:22.875Z,100508.45
2019-05-07T19:34:53.429Z,100504.72
2019-05-07T19:37:22.853Z,100508.03
2019-05-07T19:39:52.403Z,100513.00
2019-05-07T19:42:21.674Z,100508.08
2019-05-07T19:44:51.842Z,100510.98
2019-05-07T19:47:23.278Z,100508.60
2019-05-07T19:49:52.542Z,100487.58
2019-05-07T19:52:23.085Z,100520.55
2019-05-07T19:55:01.248Z,100511.84
2019-05-07T19:57:33.124Z,100526.58
2019-05-07T20:00:03.329Z,100518.17
2019-05-07T20:02:37.936Z,100519.88
2019-05-07T20:05:07.688Z,100526.74
2019-05-07T20:07:37.618Z,100523.06
2019-05-07T20:10:08.440Z,100525.95
2019-05-07T20:12:37.815Z,100531.50
2019-05-07T20:15:07.701Z,100530.91
2019-05-07T20:17:37.087Z,100535.16
2019-05-07T20:20:07.239Z,100534.67
2019-05-07T20:22:36.762Z,100541.66
2019-05-07T20:25:16.425Z,100535.41
2019-05-07T20:27:38.688Z,100536.92
2019-05-07T20:30:12.025Z,100542.89
2019-05-07T20:32:42.643Z,100544.12
2019-05-07T20:35:12.085Z,100549.13
2019-05-07T20:37:41.985Z,100551.53
2019-05-07T20:40:12.205Z,100554.55
2019-05-07T20:42:42.797Z,100554.48
2019-05-07T20:45:12.539Z,100555.59
2019-05-07T20:47:42.234Z,100553.73
2019-05-07T20:50:12.766Z,100554.97
2019-05-07T20:52:42.416Z,100560.94
2019-05-07T20:55:34.341Z,100556.02
2019-05-07T20:58:03.697Z,100561.01
2019-05-07T21:00:32.934Z,100561.70
2019-05-07T21:03:23.896Z,100560.33
2019-05-07T21:05:53.407Z,100562.94
2019-05-07T21:08:23.291Z,100562.73
2019-05-07T21:10:53.653Z,100567.79
2019-05-07T21:13:30.938Z,100567.66
2019-05-07T21:15:54.370Z,100567.45
2019-05-07T21:18:23.751Z,100575.05
2019-05-07T21:20:53.245Z,100575.83
2019-05-07T21:23:23.319Z,100570.49
2019-05-07T21:25:53.221Z,100575.96
2019-05-07T21:28:22.670Z,100584.44
2019-05-07T21:30:52.970Z,100583.06
2019-05-07T21:33:23.001Z,100582.03
2019-05-07T21:35:52.559Z,100585.45
2019-05-07T21:38:22.578Z,100584.98
2019-05-07T21:40:51.913Z,100485.08
2019-05-07T21:43:22.190Z,100590.44
2019-05-07T21:45:52.962Z,100589.48
2019-05-07T21:48:22.572Z,100600.14
2019-05-07T21:50:52.317Z,100598.70
2019-05-07T21:53:32.982Z,100601.97
2019-05-07T21:56:12.195Z,100602.31
2019-05-07T21:59:03.032Z,100603.05
2019-05-07T22:01:36.605Z,100599.90
2019-05-07T22:04:06.260Z,100606.17
2019-05-07T22:06:35.496Z,100607.73
2019-05-07T22:09:07.576Z,100602.40
2019-05-07T22:11:36.822Z,100605.81
2019-05-07T22:14:06.090Z,100603.22
2019-05-07T22:16:35.417Z,100607.59
2019-05-07T22:19:04.727Z,100609.86
2019-05-07T22:21:34.363Z,100606.44
2019-05-07T22:24:03.920Z,100609.11
2019-05-07T22:26:33.119Z,100612.67
2019-05-07T22:29:03.189Z,100614.59
2019-05-07T22:31:52.980Z,100616.37
2019-05-07T22:34:56.604Z,100609.14
2019-05-07T22:37:25.925Z,100612.22
2019-05-07T22:39:55.197Z,100617.55
2019-05-07T22:42:24.429Z,100624.61
2019-05-07T22:44:53.762Z,100618.04
2019-05-07T22:47:23.205Z,100616.25
2019-05-07T22:49:53.589Z,100625.83
2019-05-07T22:52:23.371Z,100622.00
2019-05-07T22:54:52.589Z,100628.57
2019-05-07T22:57:41.995Z,100631.51
2019-05-07T23:00:15.738Z,100633.22
2019-05-07T23:02:45.629Z,100638.41
2019-05-07T23:05:14.974Z,100637.04
2019-05-07T23:07:44.199Z,100629.17
2019-05-07T23:10:13.945Z,100638.19
2019-05-07T23:12:43.152Z,100636.34
2019-05-07T23:15:12.664Z,100640.23
2019-05-07T23:17:42.141Z,100633.59
2019-05-07T23:20:11.469Z,100637.01
2019-05-07T23:22:42.760Z,100635.08
2019-05-07T23:25:14.190Z,100638.83
2019-05-07T23:27:43.704Z,100638.83
2019-05-07T23:30:15.100Z,100636.16
2019-05-07T23:32:44.373Z,100640.61
2019-05-07T23:35:13.690Z,100643.20
2019-05-07T23:37:44.262Z,100645.39
2019-05-07T23:40:20.367Z,100646.69
2019-05-07T23:42:52.179Z,100648.41
2019-05-07T23:45:22.176Z,100649.22
2019-05-07T23:47:51.999Z,100656.94
2019-05-07T23:50:21.385Z,100655.08
2019-05-07T23:52:52.594Z,100658.83
2019-05-07T23:55:22.846Z,100662.58
2019-05-07T23:57:52.624Z,100664.69
